createdAt,value
2017-09-08T00:00:31.421Z,12.40
2017-09-08T00:01:26.436Z,12.39
2017-09-08T00:02:21.501Z,12.37
2017-09-08T00:03:21.458Z,12.38
2017-09-08T00:04:15.484Z,12.38
2017-09-08T00:05:21.687Z,12.40
2017-09-08T00:06:15.713Z,12.38
2017-09-08T00:07:09.607Z,12.40
2017-09-08T00:08:03.601Z,12.40
2017-09-08T00:09:03.918Z,12.40
2017-09-08T00:10:03.702Z,12.37
2017-09-08T00:11:03.775Z,12.37
2017-09-08T00:12:03.766Z,12.37
2017-09-08T00:12:57.873Z,12.37
2017-09-08T00:13:46.827Z,12.37
2017-09-08T00:14:35.124Z,12.34
2017-09-08T00:15:29.921Z,12.32
2017-09-08T00:16:24.984Z,12.36
2017-09-08T00:17:20.122Z,12.37
2017-09-08T00:18:20.011Z,12.36
2017-09-08T00:19:09.056Z,12.36
2017-09-08T00:19:58.079Z,12.37
2017-09-08T00:20:52.138Z,12.39
2017-09-08T00:21:41.189Z,12.39
2017-09-08T00:22:29.388Z,12.39
2017-09-08T00:23:23.246Z,12.39
2017-09-08T00:24:11.424Z,12.39
2017-09-08T00:25:06.334Z,12.40
2017-09-08T00:26:01.452Z,12.40
2017-09-08T00:26:55.413Z,12.41
2017-09-08T00:27:43.498Z,12.40
2017-09-08T00:28:31.531Z,12.41
2017-09-08T00:29:31.695Z,12.36
2017-09-08T00:30:25.566Z,12.37
2017-09-08T00:31:20.590Z,12.42
2017-09-08T00:32:09.614Z,12.40
2017-09-08T00:33:09.683Z,12.36
2017-09-08T00:34:03.974Z,12.28
2017-09-08T00:35:03.722Z,12.29
2017-09-08T00:35:57.865Z,12.27
2017-09-08T00:36:45.922Z,12.26
2017-09-08T00:37:33.810Z,12.29
2017-09-08T00:38:34.911Z,12.32
2017-09-08T00:39:36.146Z,12.29
2017-09-08T00:40:25.016Z,12.30
2017-09-08T00:41:19.985Z,12.32
2017-09-08T00:42:14.112Z,12.35
2017-09-08T00:43:02.134Z,12.39
2017-09-08T00:43:51.294Z,12.44
2017-09-08T00:44:45.358Z,12.48
2017-09-08T00:45:34.214Z,12.50
2017-09-08T00:46:23.255Z,12.54
2017-09-08T00:47:17.316Z,12.56
2017-09-08T00:48:12.350Z,12.59
2017-09-08T00:49:06.585Z,12.70
2017-09-08T00:50:01.525Z,12.74
2017-09-08T00:50:55.453Z,12.79
2017-09-08T00:51:50.560Z,12.84
2017-09-08T00:52:50.481Z,12.88
2017-09-08T00:53:45.560Z,12.89
2017-09-08T00:54:39.904Z,12.92
2017-09-08T00:55:34.545Z,12.95
2017-09-08T00:56:29.688Z,13.00
2017-09-08T00:57:23.685Z,13.02
2017-09-08T00:58:18.706Z,13.10
2017-09-08T00:59:12.990Z,13.11
2017-09-08T01:00:07.863Z,13.16
2017-09-08T01:01:07.841Z,13.20
2017-09-08T01:01:55.888Z,13.22
2017-09-08T01:02:50.925Z,13.24
2017-09-08T01:03:45.017Z,13.29
2017-09-08T01:04:39.026Z,13.30
2017-09-08T01:05:38.992Z,13.33
2017-09-08T01:06:27.074Z,13.37
2017-09-08T01:07:22.071Z,13.36
2017-09-08T01:08:17.161Z,13.38
2017-09-08T01:09:11.354Z,13.36
2017-09-08T01:10:05.200Z,13.40
2017-09-08T01:10:59.450Z,13.42
2017-09-08T01:11:59.313Z,13.45
2017-09-08T01:12:59.334Z,13.46
2017-09-08T01:13:48.356Z,13.46
2017-09-08T01:14:42.506Z,13.44
2017-09-08T01:15:42.471Z,13.47
2017-09-08T01:16:36.496Z,13.47
2017-09-08T01:17:25.540Z,13.48
2017-09-08T01:18:19.505Z,13.50
2017-09-08T01:19:08.709Z,13.48
2017-09-08T01:20:09.613Z,13.52
2017-09-08T01:20:58.691Z,13.52
2017-09-08T01:21:52.749Z,13.54
2017-09-08T01:22:47.034Z,13.58
2017-09-08T01:23:41.755Z,13.60
2017-09-08T01:24:42.052Z,13.57
2017-09-08T01:25:30.868Z,13.59
2017-09-08T01:26:25.882Z,13.60
2017-09-08T01:27:20.109Z,13.60
2017-09-08T01:28:14.885Z,13.61
2017-09-08T01:29:04.140Z,13.60
2017-09-08T01:29:57.967Z,13.62
2017-09-08T01:30:58.086Z,13.65
2017-09-08T01:31:52.101Z,13.64
2017-09-08T01:32:47.140Z,13.63
2017-09-08T01:33:47.189Z,13.64
2017-09-08T01:34:42.222Z,13.63
2017-09-08T01:35:43.284Z,13.66
2017-09-08T01:36:38.269Z,13.66
2017-09-08T01:37:27.290Z,13.66
2017-09-08T01:38:22.354Z,13.66
2017-09-08T01:39:16.450Z,13.65
2017-09-08T01:40:10.428Z,13.71
2017-09-08T01:41:04.504Z,13.71
2017-09-08T01:41:59.509Z,13.71
2017-09-08T01:42:53.531Z,13.72
2017-09-08T01:43:42.610Z,13.71
2017-09-08T01:44:43.586Z,13.68
2017-09-08T01:45:31.615Z,13.68
2017-09-08T01:46:25.724Z,13.68
2017-09-08T01:47:19.830Z,13.69
2017-09-08T01:48:19.757Z,13.68
2017-09-08T01:49:14.086Z,13.67
2017-09-08T01:50:13.837Z,13.66
2017-09-08T01:51:07.879Z,13.67
2017-09-08T01:52:02.928Z,13.66
2017-09-08T01:52:51.925Z,13.67
2017-09-08T01:53:45.987Z,13.65
2017-09-08T01:54:40.009Z,13.64
2017-09-08T01:55:34.040Z,13.66
2017-09-08T01:56:34.075Z,13.66
2017-09-08T01:57:28.142Z,13.65
2017-09-08T01:58:22.192Z,13.68
2017-09-08T01:59:16.497Z,13.65
2017-09-08T02:00:11.410Z,13.66
2017-09-08T02:01:11.305Z,13.66
2017-09-08T02:01:59.301Z,13.63
2017-09-08T02:02:53.359Z,13.61
2017-09-08T02:03:47.404Z,13.60
2017-09-08T02:04:41.400Z,13.58
2017-09-08T02:05:42.578Z,13.60
2017-09-08T02:06:31.508Z,13.58
2017-09-08T02:07:26.506Z,13.60
2017-09-08T02:08:20.567Z,13.60
2017-09-08T02:09:20.663Z,13.62
2017-09-08T02:10:15.645Z,13.64
2017-09-08T02:11:15.823Z,13.66
2017-09-08T02:12:09.970Z,13.67
2017-09-08T02:13:09.798Z,13.70
2017-09-08T02:14:03.935Z,13.68
2017-09-08T02:15:03.795Z,13.66
2017-09-08T02:15:51.927Z,13.64
2017-09-08T02:16:46.936Z,13.60
2017-09-08T02:17:35.965Z,13.60
2017-09-08T02:18:29.992Z,13.60
2017-09-08T02:19:30.322Z,13.59
2017-09-08T02:20:24.278Z,13.62
2017-09-08T02:21:24.017Z,13.62
2017-09-08T02:22:19.098Z,13.61
2017-09-08T02:23:14.176Z,13.64
2017-09-08T02:24:14.427Z,13.65
2017-09-08T02:25:08.174Z,13.66
2017-09-08T02:26:02.225Z,13.67
2017-09-08T02:26:56.259Z,13.67
2017-09-08T02:27:56.314Z,13.66
2017-09-08T02:28:51.338Z,13.66
2017-09-08T02:29:51.653Z,13.64
2017-09-08T02:30:45.636Z,13.66
2017-09-08T02:31:45.421Z,13.66
2017-09-08T02:32:40.518Z,13.67
2017-09-08T02:33:35.535Z,13.64
2017-09-08T02:34:29.849Z,13.59
2017-09-08T02:35:18.629Z,13.60
2017-09-08T02:36:07.652Z,13.60
2017-09-08T02:36:56.791Z,13.61
2017-09-08T02:37:51.852Z,13.59
2017-09-08T02:38:51.771Z,13.60
2017-09-08T02:39:46.966Z,13.61
2017-09-08T02:40:46.819Z,13.61
2017-09-08T02:41:35.868Z,13.62
2017-09-08T02:42:30.895Z,13.61
2017-09-08T02:43:19.901Z,13.59
2017-09-08T02:44:26.131Z,13.54
2017-09-08T02:45:20.068Z,13.57
2017-09-08T02:46:14.056Z,13.54
2017-09-08T02:47:08.099Z,13.52
2017-09-08T02:48:08.065Z,13.51
2017-09-08T02:49:02.141Z,13.51
2017-09-08T02:49:56.378Z,13.50
2017-09-08T02:50:57.272Z,13.54
2017-09-08T02:51:52.230Z,13.52
2017-09-08T02:52:47.300Z,13.54
2017-09-08T02:53:47.345Z,13.56
2017-09-08T02:54:41.437Z,13.54
2017-09-08T02:55:42.521Z,13.56
2017-09-08T02:56:37.444Z,13.59
2017-09-08T02:57:38.459Z,13.60
2017-09-08T02:58:32.468Z,13.62
2017-09-08T02:59:21.496Z,13.60
2017-09-08T03:00:27.493Z,13.62
2017-09-08T03:01:21.595Z,13.62
2017-09-08T03:02:21.731Z,13.64
2017-09-08T03:03:09.622Z,13.65
2017-09-08T03:03:58.720Z,13.64
2017-09-08T03:04:46.740Z,13.64
2017-09-08T03:05:46.859Z,13.65
2017-09-08T03:06:34.884Z,13.65
2017-09-08T03:07:40.860Z,13.66
2017-09-08T03:08:35.953Z,13.70
2017-09-08T03:09:23.948Z,13.70
2017-09-08T03:10:17.907Z,13.70
2017-09-08T03:11:12.008Z,13.69
2017-09-08T03:12:12.048Z,13.72
2017-09-08T03:13:01.091Z,13.72
2017-09-08T03:13:55.099Z,13.73
2017-09-08T03:14:55.448Z,13.74
2017-09-08T03:15:56.418Z,13.76
2017-09-08T03:16:57.222Z,13.76
2017-09-08T03:17:46.241Z,13.77
2017-09-08T03:18:41.570Z,13.79
2017-09-08T03:19:35.335Z,13.77
2017-09-08T03:20:23.375Z,13.79
2017-09-08T03:21:11.389Z,13.77
2017-09-08T03:22:00.440Z,13.74
2017-09-08T03:22:54.525Z,13.74
2017-09-08T03:23:54.523Z,13.76
2017-09-08T03:24:43.622Z,13.72
2017-09-08T03:25:38.582Z,13.76
2017-09-08T03:26:32.646Z,13.73
2017-09-08T03:27:27.688Z,13.74
2017-09-08T03:28:21.715Z,13.71
2017-09-08T03:29:21.865Z,13.68
2017-09-08T03:30:16.781Z,13.71
2017-09-08T03:31:10.837Z,13.70
2017-09-08T03:32:10.989Z,13.68
2017-09-08T03:32:58.904Z,13.68
2017-09-08T03:33:53.932Z,13.72
2017-09-08T03:34:47.933Z,13.72
2017-09-08T03:35:41.990Z,13.74
2017-09-08T03:36:31.111Z,13.73
2017-09-08T03:37:19.096Z,13.76
2017-09-08T03:38:13.142Z,13.77
2017-09-08T03:39:01.284Z,13.79
2017-09-08T03:39:56.502Z,13.76
2017-09-08T03:40:45.216Z,13.78
2017-09-08T03:41:40.292Z,13.78
2017-09-08T03:42:34.291Z,13.78
2017-09-08T03:43:34.338Z,13.80
2017-09-08T03:44:28.396Z,13.78
2017-09-08T03:45:17.403Z,13.82
2017-09-08T03:46:12.457Z,13.84
2017-09-08T03:47:06.507Z,13.85
2017-09-08T03:48:06.568Z,13.87
2017-09-08T03:49:06.604Z,13.85
2017-09-08T03:50:01.616Z,13.86
2017-09-08T03:50:55.629Z,13.90
2017-09-08T03:51:43.652Z,13.86
2017-09-08T03:52:38.748Z,13.86
2017-09-08T03:53:33.944Z,13.88
2017-09-08T03:54:22.856Z,13.88
2017-09-08T03:55:22.809Z,13.89
2017-09-08T03:56:17.828Z,13.88
2017-09-08T03:57:07.169Z,13.88
2017-09-08T03:58:12.918Z,13.91
2017-09-08T03:59:00.952Z,13.89
2017-09-08T04:00:00.961Z,13.86
2017-09-08T04:00:55.064Z,13.88
2017-09-08T04:01:49.048Z,13.90
2017-09-08T04:02:43.303Z,13.90
2017-09-08T04:03:43.125Z,13.89
2017-09-08T04:04:38.122Z,13.87
2017-09-08T04:05:27.261Z,13.91
2017-09-08T04:06:16.352Z,13.88
2017-09-08T04:07:05.309Z,13.89
2017-09-08T04:07:59.311Z,13.90
2017-09-08T04:08:59.412Z,13.89
2017-09-08T04:09:53.702Z,13.86
2017-09-08T04:10:53.452Z,13.88
2017-09-08T04:11:47.612Z,13.89
2017-09-08T04:12:47.548Z,13.90
2017-09-08T04:13:41.538Z,13.92
2017-09-08T04:14:41.867Z,13.90
2017-09-08T04:15:41.610Z,13.90
2017-09-08T04:16:35.636Z,13.91
2017-09-08T04:17:23.716Z,13.90
2017-09-08T04:18:17.734Z,13.91
2017-09-08T04:19:11.764Z,13.89
2017-09-08T04:20:06.792Z,13.90
2017-09-08T04:20:55.831Z,13.92
2017-09-08T04:21:43.932Z,13.90
2017-09-08T04:22:39.379Z,13.91
2017-09-08T04:23:32.969Z,13.93
2017-09-08T04:24:22.017Z,13.90
2017-09-08T04:25:16.031Z,13.92
2017-09-08T04:26:05.103Z,13.93
2017-09-08T04:26:59.142Z,13.94
2017-09-08T04:27:59.177Z,13.92
2017-09-08T04:28:53.208Z,13.96
2017-09-08T04:29:47.206Z,13.94
2017-09-08T04:30:36.248Z,13.96
2017-09-08T04:31:36.312Z,13.98
2017-09-08T04:32:37.334Z,13.97
2017-09-08T04:33:31.408Z,13.96
2017-09-08T04:34:26.422Z,13.96
2017-09-08T04:35:20.458Z,13.96
2017-09-08T04:36:20.524Z,13.98
2017-09-08T04:37:20.535Z,13.95
2017-09-08T04:38:20.537Z,13.96
2017-09-08T04:39:14.786Z,13.95
2017-09-08T04:40:08.593Z,13.98
2017-09-08T04:41:02.672Z,13.99
2017-09-08T04:41:56.729Z,13.99
2017-09-08T04:42:51.734Z,14.00
2017-09-08T04:43:52.760Z,13.98
2017-09-08T04:44:40.824Z,14.00
2017-09-08T04:45:34.828Z,13.99
2017-09-08T04:46:28.916Z,13.98
2017-09-08T04:47:17.944Z,13.99
2017-09-08T04:48:12.927Z,13.98
2017-09-08T04:49:08.324Z,13.94
2017-09-08T04:50:08.050Z,13.98
2017-09-08T04:51:02.008Z,13.96
2017-09-08T04:51:51.310Z,13.99
2017-09-08T04:52:46.263Z,13.98
2017-09-08T04:53:40.156Z,13.99
2017-09-08T04:54:40.467Z,13.94
2017-09-08T04:55:35.381Z,13.96
2017-09-08T04:56:30.434Z,13.94
2017-09-08T04:57:31.328Z,13.95
2017-09-08T04:58:31.328Z,13.96
2017-09-08T04:59:31.375Z,13.97
2017-09-08T05:00:26.411Z,13.96
2017-09-08T05:01:20.565Z,13.98
2017-09-08T05:02:08.505Z,13.97
2017-09-08T05:03:08.522Z,13.98
2017-09-08T05:04:02.576Z,13.96
2017-09-08T05:04:57.611Z,13.97
2017-09-08T05:05:52.684Z,14.02
2017-09-08T05:06:46.732Z,14.00
2017-09-08T05:07:35.694Z,13.99
2017-09-08T05:08:24.789Z,13.98
2017-09-08T05:09:14.084Z,13.98
2017-09-08T05:10:08.943Z,14.01
2017-09-08T05:10:57.893Z,14.02
2017-09-08T05:11:57.929Z,14.00
2017-09-08T05:12:57.933Z,14.02
2017-09-08T05:13:52.008Z,14.00
2017-09-08T05:14:45.997Z,14.00
2017-09-08T05:15:35.038Z,14.02
2017-09-08T05:16:35.096Z,14.07
2017-09-08T05:17:24.420Z,14.03
2017-09-08T05:18:12.152Z,14.02
2017-09-08T05:19:12.481Z,14.01
2017-09-08T05:20:07.262Z,14.00
2017-09-08T05:21:01.331Z,14.04
2017-09-08T05:21:56.299Z,14.04
2017-09-08T05:22:57.651Z,14.06
2017-09-08T05:23:46.409Z,14.08
2017-09-08T05:24:34.404Z,14.08
2017-09-08T05:25:34.470Z,14.00
2017-09-08T05:26:28.494Z,14.02
2017-09-08T05:27:22.556Z,14.03
2017-09-08T05:28:22.616Z,14.06
2017-09-08T05:29:16.884Z,14.04
2017-09-08T05:30:10.684Z,14.07
2017-09-08T05:30:59.710Z,13.99
2017-09-08T05:31:54.727Z,14.04
2017-09-08T05:32:54.771Z,14.06
2017-09-08T05:33:49.123Z,14.08
2017-09-08T05:34:38.112Z,14.08
2017-09-08T05:35:31.881Z,14.04
2017-09-08T05:36:25.926Z,14.08
2017-09-08T05:37:25.973Z,14.08
2017-09-08T05:38:20.046Z,14.06
2017-09-08T05:39:20.361Z,14.05
2017-09-08T05:40:20.089Z,14.08
2017-09-08T05:41:09.092Z,14.09
2017-09-08T05:42:09.135Z,14.12
2017-09-08T05:43:03.132Z,14.11
2017-09-08T05:43:58.231Z,14.09
2017-09-08T05:44:53.634Z,14.12
2017-09-08T05:45:41.310Z,14.06
2017-09-08T05:46:30.348Z,14.08
2017-09-08T05:47:25.368Z,14.06
2017-09-08T05:48:19.431Z,14.10
2017-09-08T05:49:13.755Z,14.09
2017-09-08T05:50:07.493Z,14.08
2017-09-08T05:51:01.524Z,14.04
2017-09-08T05:51:55.576Z,14.08
2017-09-08T05:52:44.543Z,14.11
2017-09-08T05:53:38.664Z,14.12
2017-09-08T05:54:32.711Z,14.11
2017-09-08T05:55:27.722Z,14.08
2017-09-08T05:56:21.758Z,14.06
2017-09-08T05:57:17.062Z,14.06
2017-09-08T05:58:11.829Z,14.08
2017-09-08T05:59:05.888Z,14.08
2017-09-08T06:00:05.935Z,14.03
2017-09-08T06:01:01.005Z,14.04
2017-09-08T06:01:56.099Z,14.03
2017-09-08T06:02:44.043Z,14.07
2017-09-08T06:03:44.060Z,14.06
2017-09-08T06:04:33.113Z,14.08
2017-09-08T06:05:27.134Z,14.12
2017-09-08T06:06:21.289Z,14.06
2017-09-08T06:07:09.239Z,14.10
2017-09-08T06:08:03.263Z,14.08
2017-09-08T06:08:57.287Z,14.12
2017-09-08T06:09:51.272Z,14.14
2017-09-08T06:10:39.621Z,14.16
2017-09-08T06:11:33.397Z,14.14
2017-09-08T06:12:27.430Z,14.10
2017-09-08T06:13:21.504Z,14.14
2017-09-08T06:14:16.523Z,14.10
2017-09-08T06:15:16.580Z,14.16
2017-09-08T06:16:11.578Z,14.19
2017-09-08T06:17:11.759Z,14.18
2017-09-08T06:18:05.619Z,14.25
2017-09-08T06:18:59.721Z,14.20
2017-09-08T06:19:53.767Z,14.22
2017-09-08T06:20:47.908Z,14.20
2017-09-08T06:21:41.796Z,14.26
2017-09-08T06:22:30.986Z,14.26
2017-09-08T06:23:24.911Z,14.33
2017-09-08T06:24:14.426Z,14.36
2017-09-08T06:25:08.026Z,14.36
2017-09-08T06:26:08.060Z,14.50
2017-09-08T06:27:08.058Z,14.54
2017-09-08T06:28:02.140Z,14.53
2017-09-08T06:29:02.142Z,14.52
2017-09-08T06:29:57.201Z,14.59
2017-09-08T06:30:57.211Z,14.55
2017-09-08T06:31:51.414Z,14.58
2017-09-08T06:32:45.265Z,14.61
2017-09-08T06:33:45.291Z,14.64
2017-09-08T06:34:40.361Z,14.62
2017-09-08T06:35:28.387Z,14.63
2017-09-08T06:36:28.458Z,14.52
2017-09-08T06:37:23.527Z,14.49
2017-09-08T06:38:17.489Z,14.49
2017-09-08T06:39:12.831Z,14.47
2017-09-08T06:40:07.653Z,14.58
2017-09-08T06:41:01.624Z,14.57
2017-09-08T06:42:02.709Z,14.45
2017-09-08T06:42:56.708Z,14.49
2017-09-08T06:43:50.707Z,14.56
2017-09-08T06:44:51.849Z,14.51
2017-09-08T06:45:45.822Z,14.46
2017-09-08T06:46:40.837Z,14.49
2017-09-08T06:47:29.979Z,14.46
2017-09-08T06:48:23.936Z,14.46
2017-09-08T06:49:19.048Z,14.49
2017-09-08T06:50:14.020Z,14.44
2017-09-08T06:51:08.121Z,14.53
2017-09-08T06:52:08.110Z,14.56
2017-09-08T06:53:02.148Z,14.66
2017-09-08T06:54:02.207Z,14.62
2017-09-08T06:54:56.245Z,14.64
2017-09-08T06:55:50.369Z,14.66
2017-09-08T06:56:45.343Z,14.58
2017-09-08T06:57:39.584Z,14.60
2017-09-08T06:58:34.374Z,14.60
2017-09-08T06:59:28.420Z,14.60
2017-09-08T07:00:23.410Z,14.61
2017-09-08T07:01:23.489Z,14.60
2017-09-08T07:02:17.708Z,14.66
2017-09-08T07:03:17.572Z,14.68
2017-09-08T07:04:17.657Z,14.70
2017-09-08T07:05:11.685Z,14.72
2017-09-08T07:06:12.859Z,14.84
2017-09-08T07:07:06.674Z,14.82
2017-09-08T07:08:06.683Z,14.81
2017-09-08T07:09:00.782Z,14.80
2017-09-08T07:09:54.816Z,14.81
2017-09-08T07:10:55.840Z,14.78
2017-09-08T07:11:49.890Z,14.72
2017-09-08T07:12:50.118Z,14.71
2017-09-08T07:13:43.973Z,14.73
2017-09-08T07:14:44.206Z,14.70
2017-09-08T07:15:38.020Z,14.74
2017-09-08T07:16:33.124Z,14.67
2017-09-08T07:17:33.112Z,14.62
2017-09-08T07:18:22.164Z,14.63
2017-09-08T07:19:11.553Z,14.66
2017-09-08T07:20:06.445Z,14.67
2017-09-08T07:21:00.274Z,14.70
2017-09-08T07:22:00.463Z,14.70
2017-09-08T07:22:54.373Z,14.80
2017-09-08T07:23:48.403Z,14.79
2017-09-08T07:24:37.418Z,14.82
2017-09-08T07:25:32.520Z,14.77
2017-09-08T07:26:32.545Z,14.76
2017-09-08T07:27:21.565Z,14.76
2017-09-08T07:28:21.608Z,14.72
2017-09-08T07:29:16.048Z,14.72
2017-09-08T07:30:10.678Z,14.73
2017-09-08T07:31:05.722Z,14.72
2017-09-08T07:31:59.758Z,14.66
2017-09-08T07:32:54.856Z,14.66
2017-09-08T07:33:54.836Z,14.63
2017-09-08T07:34:49.911Z,14.69
2017-09-08T07:35:49.950Z,14.65
2017-09-08T07:36:43.957Z,14.64
2017-09-08T07:37:38.023Z,14.61
2017-09-08T07:38:32.035Z,14.60
2017-09-08T07:39:32.078Z,14.62
2017-09-08T07:40:26.507Z,14.59
2017-09-08T07:41:26.111Z,14.67
2017-09-08T07:42:26.238Z,14.66
2017-09-08T07:43:20.237Z,14.70
2017-09-08T07:44:20.266Z,14.71
2017-09-08T07:45:14.305Z,14.71
2017-09-08T07:46:03.392Z,14.72
2017-09-08T07:47:03.350Z,14.76
2017-09-08T07:47:58.448Z,14.74
2017-09-08T07:48:53.470Z,14.80
2017-09-08T07:49:48.478Z,14.80
2017-09-08T07:50:48.536Z,14.78
2017-09-08T07:51:42.611Z,14.74
2017-09-08T07:52:37.584Z,14.72
2017-09-08T07:53:38.652Z,14.80
2017-09-08T07:54:33.681Z,14.73
2017-09-08T07:55:28.762Z,14.68
2017-09-08T07:56:22.765Z,14.71
2017-09-08T07:57:22.872Z,14.67
2017-09-08T07:58:11.814Z,14.69
2017-09-08T07:59:12.155Z,14.66
2017-09-08T08:00:11.912Z,14.61
2017-09-08T08:01:05.938Z,14.62
2017-09-08T08:02:00.020Z,14.62
2017-09-08T08:03:01.018Z,14.70
2017-09-08T08:04:02.096Z,14.66
2017-09-08T08:04:56.119Z,14.70
2017-09-08T08:05:45.151Z,14.68
2017-09-08T08:06:39.239Z,14.56
2017-09-08T08:07:39.205Z,14.55
2017-09-08T08:08:33.266Z,14.60
2017-09-08T08:09:33.309Z,14.62
2017-09-08T08:10:22.381Z,14.52
2017-09-08T08:11:11.438Z,14.56
2017-09-08T08:12:05.430Z,14.50
2017-09-08T08:13:05.440Z,14.58
2017-09-08T08:13:59.505Z,14.64
2017-09-08T08:14:59.592Z,14.69
2017-09-08T08:15:54.600Z,14.72
2017-09-08T08:16:48.603Z,14.68
2017-09-08T08:17:42.850Z,14.66
2017-09-08T08:18:37.674Z,14.60
2017-09-08T08:19:37.811Z,14.64
2017-09-08T08:20:26.804Z,14.62
2017-09-08T08:21:21.798Z,14.66
2017-09-08T08:22:15.849Z,14.62
2017-09-08T08:23:10.874Z,14.57
2017-09-08T08:24:10.947Z,14.44
2017-09-08T08:25:11.275Z,14.43
2017-09-08T08:26:11.031Z,14.43
2017-09-08T08:27:11.038Z,14.46
2017-09-08T08:28:05.059Z,14.41
2017-09-08T08:28:59.099Z,14.52
2017-09-08T08:29:54.177Z,14.54
2017-09-08T08:30:54.219Z,14.54
2017-09-08T08:31:49.258Z,14.50
2017-09-08T08:32:49.332Z,14.52
2017-09-08T08:33:43.324Z,14.54
2017-09-08T08:34:38.328Z,14.52
2017-09-08T08:35:38.418Z,14.56
2017-09-08T08:36:27.474Z,14.63
2017-09-08T08:37:22.513Z,14.63
2017-09-08T08:38:16.526Z,14.58
2017-09-08T08:39:10.553Z,14.62
2017-09-08T08:40:05.626Z,14.70
2017-09-08T08:40:59.644Z,14.77
2017-09-08T08:41:59.714Z,14.64
2017-09-08T08:42:59.771Z,14.63
2017-09-08T08:43:53.727Z,14.48
2017-09-08T08:44:48.803Z,14.44
2017-09-08T08:45:48.839Z,14.50
2017-09-08T08:46:42.927Z,14.46
2017-09-08T08:47:42.934Z,14.41
2017-09-08T08:48:36.943Z,14.41
2017-09-08T08:49:31.023Z,14.61
2017-09-08T08:50:20.058Z,14.57
2017-09-08T08:51:14.107Z,14.23
2017-09-08T08:52:08.143Z,14.09
2017-09-08T08:53:08.291Z,13.98
2017-09-08T08:53:57.247Z,13.96
2017-09-08T08:54:57.289Z,13.71
2017-09-08T08:55:51.340Z,13.51
2017-09-08T08:56:45.502Z,13.54
2017-09-08T08:57:45.370Z,13.90
2017-09-08T08:58:40.449Z,13.80
2017-09-08T08:59:34.441Z,13.88
2017-09-08T09:00:34.513Z,13.97
2017-09-08T09:01:34.504Z,13.87
2017-09-08T09:02:34.870Z,13.72
2017-09-08T09:03:23.542Z,13.64
2017-09-08T09:04:18.071Z,13.57
2017-09-08T09:05:12.725Z,13.70
2017-09-08T09:06:06.759Z,13.66
2017-09-08T09:07:06.727Z,13.38
2017-09-08T09:08:01.846Z,13.38
2017-09-08T09:08:56.862Z,13.58
2017-09-08T09:09:44.920Z,13.71
2017-09-08T09:10:44.927Z,13.74
2017-09-08T09:11:39.072Z,13.78
2017-09-08T09:12:39.052Z,13.61
2017-09-08T09:13:33.171Z,13.80
2017-09-08T09:14:27.373Z,13.73
2017-09-08T09:15:22.197Z,13.45
2017-09-08T09:16:22.111Z,13.40
2017-09-08T09:17:17.331Z,13.13
2017-09-08T09:18:12.317Z,13.30
2017-09-08T09:19:01.275Z,13.28
2017-09-08T09:20:02.363Z,13.24
2017-09-08T09:21:02.363Z,13.21
2017-09-08T09:22:02.390Z,13.17
2017-09-08T09:23:02.441Z,13.08
2017-09-08T09:24:02.756Z,13.19
2017-09-08T09:25:02.868Z,13.37
2017-09-08T09:25:56.579Z,13.46
2017-09-08T09:26:51.646Z,13.40
2017-09-08T09:27:45.686Z,13.62
2017-09-08T09:28:39.736Z,13.85
2017-09-08T09:29:39.848Z,13.93
2017-09-08T09:30:35.050Z,14.06
2017-09-08T09:31:34.779Z,14.06
2017-09-08T09:32:28.953Z,14.08
2017-09-08T09:33:29.895Z,14.16
2017-09-08T09:34:30.939Z,14.17
2017-09-08T09:35:24.993Z,14.28
2017-09-08T09:36:19.084Z,14.40
2017-09-08T09:37:14.156Z,14.44
2017-09-08T09:38:15.069Z,14.58
2017-09-08T09:39:09.116Z,14.58
2017-09-08T09:39:58.240Z,14.60
2017-09-08T09:40:53.413Z,14.52
2017-09-08T09:41:48.389Z,14.51
2017-09-08T09:42:54.409Z,14.52
2017-09-08T09:43:49.332Z,14.64
2017-09-08T09:44:44.359Z,14.58
2017-09-08T09:45:44.514Z,14.60
2017-09-08T09:46:38.479Z,14.60
2017-09-08T09:47:27.542Z,14.61
2017-09-08T09:48:21.523Z,14.66
2017-09-08T09:49:16.926Z,14.57
2017-09-08T09:50:10.633Z,14.60
2017-09-08T09:51:10.752Z,14.62
2017-09-08T09:51:59.850Z,14.67
2017-09-08T09:52:53.817Z,14.71
2017-09-08T09:53:53.849Z,14.75
2017-09-08T09:54:48.801Z,14.80
2017-09-08T09:55:49.047Z,14.79
2017-09-08T09:56:42.964Z,14.74
2017-09-08T09:57:43.015Z,14.87
2017-09-08T09:58:38.001Z,14.86
2017-09-08T09:59:33.060Z,14.80
2017-09-08T10:00:27.082Z,14.91
2017-09-08T10:01:22.072Z,14.79
2017-09-08T10:02:16.166Z,14.76
2017-09-08T10:03:05.237Z,14.78
2017-09-08T10:04:00.223Z,14.79
2017-09-08T10:04:54.363Z,14.71
2017-09-08T10:05:49.365Z,14.76
2017-09-08T10:06:49.443Z,14.76
2017-09-08T10:07:43.484Z,14.70
2017-09-08T10:08:38.393Z,14.64
2017-09-08T10:09:32.527Z,14.62
2017-09-08T10:10:27.571Z,14.70
2017-09-08T10:11:22.596Z,14.74
2017-09-08T10:12:22.650Z,14.60
2017-09-08T10:13:17.681Z,14.56
2017-09-08T10:14:17.953Z,14.54
2017-09-08T10:15:12.809Z,14.58
2017-09-08T10:16:00.831Z,14.66
2017-09-08T10:16:55.919Z,14.62
2017-09-08T10:17:49.829Z,14.63
2017-09-08T10:18:37.954Z,14.71
2017-09-08T10:19:33.122Z,14.71
2017-09-08T10:20:28.071Z,14.74
2017-09-08T10:21:22.179Z,14.78
2017-09-08T10:22:17.036Z,14.82
2017-09-08T10:23:17.100Z,14.84
2017-09-08T10:24:11.191Z,14.88
2017-09-08T10:25:05.197Z,15.02
2017-09-08T10:25:54.222Z,14.96
2017-09-08T10:26:48.732Z,14.89
2017-09-08T10:27:43.407Z,15.01
2017-09-08T10:28:43.328Z,14.97
2017-09-08T10:29:37.389Z,15.10
2017-09-08T10:30:38.419Z,15.19
2017-09-08T10:31:32.757Z,15.19
2017-09-08T10:32:26.554Z,15.12
2017-09-08T10:33:26.559Z,15.16
2017-09-08T10:34:20.821Z,15.17
2017-09-08T10:35:09.597Z,15.13
2017-09-08T10:36:03.645Z,15.14
2017-09-08T10:36:58.745Z,15.17
2017-09-08T10:37:47.712Z,15.11
2017-09-08T10:38:42.962Z,15.18
2017-09-08T10:39:42.993Z,15.24
2017-09-08T10:40:37.814Z,15.26
2017-09-08T10:41:25.938Z,15.18
2017-09-08T10:42:25.946Z,15.07
2017-09-08T10:43:20.979Z,15.13
2017-09-08T10:44:09.132Z,15.05
2017-09-08T10:45:10.157Z,14.98
2017-09-08T10:46:04.140Z,15.02
2017-09-08T10:46:59.208Z,15.04
2017-09-08T10:47:48.366Z,14.96
2017-09-08T10:48:42.269Z,14.99
2017-09-08T10:49:37.279Z,14.96
2017-09-08T10:50:32.617Z,14.98
2017-09-08T10:51:26.360Z,15.00
2017-09-08T10:52:26.383Z,14.97
2017-09-08T10:53:20.459Z,15.03
2017-09-08T10:54:20.945Z,15.10
2017-09-08T10:55:15.560Z,15.03
2017-09-08T10:56:09.750Z,15.07
2017-09-08T10:56:57.568Z,15.12
2017-09-08T10:57:46.670Z,15.14
2017-09-08T10:58:40.731Z,15.16
2017-09-08T10:59:35.703Z,15.16
2017-09-08T11:00:30.820Z,15.28
2017-09-08T11:01:24.822Z,15.29
2017-09-08T11:02:18.864Z,15.30
2017-09-08T11:03:12.904Z,15.36
2017-09-08T11:04:08.135Z,15.30
2017-09-08T11:04:56.995Z,15.24
2017-09-08T11:05:51.028Z,15.25
2017-09-08T11:06:51.044Z,15.23
2017-09-08T11:07:40.135Z,15.18
2017-09-08T11:08:35.160Z,15.13
2017-09-08T11:09:35.228Z,15.15
2017-09-08T11:10:29.520Z,15.20
2017-09-08T11:11:29.252Z,15.26
2017-09-08T11:12:29.285Z,15.28
2017-09-08T11:13:23.493Z,15.36
2017-09-08T11:14:23.595Z,15.30
2017-09-08T11:15:18.471Z,15.30
2017-09-08T11:16:12.424Z,15.37
2017-09-08T11:17:07.512Z,15.43
2017-09-08T11:18:01.519Z,15.47
2017-09-08T11:18:49.643Z,15.43
2017-09-08T11:19:43.657Z,15.33
2017-09-08T11:20:32.719Z,15.39
2017-09-08T11:21:20.742Z,15.42
2017-09-08T11:22:08.719Z,15.41
2017-09-08T11:22:57.828Z,15.44
2017-09-08T11:23:52.883Z,15.50
2017-09-08T11:24:47.021Z,15.42
2017-09-08T11:25:46.933Z,15.37
2017-09-08T11:26:40.961Z,15.38
2017-09-08T11:27:42.007Z,15.30
2017-09-08T11:28:43.041Z,15.22
2017-09-08T11:29:31.064Z,15.28
2017-09-08T11:30:26.364Z,15.31
2017-09-08T11:31:20.179Z,15.32
2017-09-08T11:32:14.221Z,15.41
2017-09-08T11:33:14.312Z,15.29
2017-09-08T11:34:09.307Z,15.31
2017-09-08T11:35:09.305Z,15.34
2017-09-08T11:36:09.332Z,15.26
2017-09-08T11:37:09.422Z,15.25
2017-09-08T11:38:03.467Z,15.20
2017-09-08T11:38:58.500Z,15.25
2017-09-08T11:39:52.496Z,15.25
2017-09-08T11:40:58.529Z,15.26
2017-09-08T11:41:52.574Z,15.24
2017-09-08T11:42:47.896Z,15.16
2017-09-08T11:43:42.960Z,15.20
2017-09-08T11:44:42.757Z,15.17
2017-09-08T11:45:36.684Z,15.22
2017-09-08T11:46:31.869Z,15.27
2017-09-08T11:47:25.838Z,15.28
2017-09-08T11:48:21.155Z,15.30